Time;durP1;ratioP1;P1;durP2;ratioP2;P2;SDS_P1;SDS_P2;PMS_P1;PMS_P2;Temp;Humidity;BMP_temperature;BMP_pressure;BME280_temperature;BME280_humidity;BME280_pressure;Samples;Min_cycle;Max_cycle;Signal;HPM_P1;HPM_P2
2023/06/06 00:00:28;;;;;;;5.60;3.05;;;;;;;11.68;100.00;95826.31;1030246;28;20069;-75
2023/06/06 00:00:59;;;;;;;4.05;2.58;;;;;;;11.67;100.00;95831.81;1034000;28;20018;-75
2023/06/06 00:01:29;;;;;;;3.50;2.67;;;;;;;11.59;100.00;95819.22;1037861;28;20037;-75
2023/06/06 00:02:00;;;;;;;6.22;2.63;;;;;;;11.64;100.00;95827.13;1034172;28;20026;-75
2023/06/06 00:02:31;;;;;;;3.15;2.85;;;;;;;11.62;100.00;95832.63;1034033;28;20033;-75
2023/06/06 00:03:01;;;;;;;3.60;2.85;;;;;;;11.54;100.00;95815.56;1026270;28;20027;-75
2023/06/06 00:03:32;;;;;;;4.32;2.92;;;;;;;11.60;100.00;95826.84;1026219;28;21005;-76
2023/06/06 00:04:03;;;;;;;5.03;2.80;;;;;;;11.59;100.00;95827.13;1034009;28;20037;-74
2023/06/06 00:04:35;;;;;;;6.00;2.85;;;;;;;11.55;100.00;95822.38;1034362;28;20029;-76
2023/06/06 00:05:07;;;;;;;3.17;2.75;;;;;;;11.56;100.00;95823.94;1030468;28;20109;-76
2023/06/06 00:05:37;;;;;;;3.63;2.60;;;;;;;11.54;100.00;95825.28;1030377;28;20383;-76
2023/06/06 00:06:08;;;;;;;4.25;2.92;;;;;;;11.54;100.00;95825.28;1026176;28;20266;-77
2023/06/06 00:06:42;;;;;;;3.00;2.70;;;;;;;11.52;100.00;95838.69;1027240;28;20083;-75
2023/06/06 00:07:14;;;;;;;4.35;2.90;;;;;;;11.47;100.00;95822.16;1032920;28;20503;-75
2023/06/06 00:07:45;;;;;;;6.28;3.17;;;;;;;11.49;100.00;95826.06;1022157;29;20326;-77
2023/06/06 00:08:20;;;;;;;4.07;2.58;;;;;;;11.49;100.00;95826.06;1022877;29;20019;-76
2023/06/06 00:08:52;;;;;;;4.30;2.95;;;;;;;11.44;100.00;95818.22;1022963;29;20542;-76
2023/06/06 00:09:23;;;;;;;6.03;3.08;;;;;;;11.46;100.00;95829.22;1030781;28;20019;-75
2023/06/06 00:09:53;;;;;;;7.97;3.78;;;;;;;11.46;100.00;95829.22;1031772;28;20732;-76
2023/06/06 00:10:24;;;;;;;5.20;2.75;;;;;;;11.44;100.00;95830.56;1034913;28;20052;-73
2023/06/06 00:10:55;;;;;;;4.35;2.80;;;;;;;11.41;100.00;95831.88;1030487;28;20033;-77
2023/06/06 00:11:28;;;;;;;3.22;2.50;;;;;;;11.39;100.00;95831.34;1030361;28;20078;-74
2023/06/06 00:12:00;;;;;;;15.13;2.97;;;;;;;11.38;100.00;95832.41;1030279;28;20266;-74
2023/06/06 00:12:32;;;;;;;4.93;2.80;;;;;;;11.34;100.00;95826.13;1034478;28;20689;-78
2023/06/06 00:13:02;;;;;;;4.03;3.03;;;;;;;11.37;100.00;95830.84;1030749;28;20280;-75
2023/06/06 00:13:34;;;;;;;3.50;2.65;;;;;;;11.36;100.00;95833.72;1034862;28;20268;-75
2023/06/06 00:14:07;;;;;;;3.75;2.90;;;;;;;11.29;100.00;95824.25;1028904;28;20068;-74
2023/06/06 00:14:41;;;;;;;4.25;2.80;;;;;;;11.27;100.00;95820.34;1034999;28;20288;-76
2023/06/06 00:15:13;;;;;;;12.23;3.20;;;;;;;11.32;100.00;95829.00;1026788;28;20278;-75
2023/06/06 00:15:44;;;;;;;9.15;3.08;;;;;;;11.31;100.00;95830.03;1024534;28;20020;-74
2023/06/06 00:16:17;;;;;;;7.88;3.17;;;;;;;11.31;100.00;95821.38;1023153;28;20714;-75
2023/06/06 00:16:49;;;;;;;7.43;2.70;;;;;;;11.32;100.00;95822.94;1034913;28;20037;-73
2023/06/06 00:17:20;;;;;;;8.23;3.28;;;;;;;11.29;100.00;95826.88;1031200;28;20273;-74
2023/06/06 00:17:55;;;;;;;7.00;3.22;;;;;;;11.29;100.00;95829.50;1027396;28;20290;-75
2023/06/06 00:18:27;;;;;;;11.95;2.97;;;;;;;11.27;100.00;95822.97;1025836;28;20266;-74
2023/06/06 00:18:58;;;;;;;6.82;3.00;;;;;;;11.21;100.00;95816.13;1027749;28;20274;-76
2023/06/06 00:19:29;;;;;;;5.47;3.10;;;;;;;11.26;100.00;95824.78;1026643;28;20314;-75
2023/06/06 00:20:00;;;;;;;4.00;3.22;;;;;;;11.26;100.00;95824.00;1027281;28;20819;-75
2023/06/06 00:20:32;;;;;;;4.55;3.03;;;;;;;11.24;100.00;95820.88;1030515;28;20033;-76
2023/06/06 00:21:04;;;;;;;4.63;3.20;;;;;;;11.22;100.00;95820.34;1030832;28;20368;-75
2023/06/06 00:21:36;;;;;;;5.07;2.63;;;;;;;11.19;100.00;95815.59;1030615;28;20265;-75
2023/06/06 00:22:07;;;;;;;6.20;3.00;;;;;;;11.23;100.00;95829.78;1034756;28;20273;-75
2023/06/06 00:22:37;;;;;;;4.10;2.55;;;;;;;11.22;100.00;95823.75;1031318;28;21100;-75
2023/06/06 00:23:08;;;;;;;3.35;3.00;;;;;;;11.23;100.00;95827.16;1035152;28;20347;-74
2023/06/06 00:23:38;;;;;;;3.65;2.70;;;;;;;11.22;100.00;95828.22;1039058;28;20021;-74
2023/06/06 00:24:11;;;;;;;3.55;3.25;;;;;;;11.21;100.00;95821.41;1034757;28;20431;-75
2023/06/06 00:24:41;;;;;;;6.53;3.05;;;;;;;11.19;100.00;95826.91;1038834;28;20406;-75
2023/06/06 00:25:12;;;;;;;3.60;2.75;;;;;;;11.18;100.00;95830.59;1034839;28;20316;-75
2023/06/06 00:25:42;;;;;;;3.38;2.67;;;;;;;11.18;100.00;95824.53;1034902;28;20423;-74
2023/06/06 00:26:13;;;;;;;4.00;3.13;;;;;;;11.17;100.00;95836.09;1034708;28;20036;-75
2023/06/06 00:26:43;;;;;;;3.22;2.70;;;;;;;11.12;100.00;95826.38;1030995;28;20129;-75
2023/06/06 00:27:14;;;;;;;8.50;3.63;;;;;;;11.16;100.00;95834.50;1030788;28;20520;-75
2023/06/06 00:27:44;;;;;;;4.80;3.33;;;;;;;11.08;100.00;95820.88;1027140;28;20023;-74
2023/06/06 00:28:15;;;;;;;3.25;2.75;;;;;;;11.07;100.00;95818.50;1026731;28;20034;-77
2023/06/06 00:28:46;;;;;;;4.75;3.03;;;;;;;11.07;100.00;95816.69;1035201;28;20025;-75
2023/06/06 00:29:16;;;;;;;4.25;2.83;;;;;;;11.12;100.00;95828.22;1030931;28;20676;-74
2023/06/06 00:29:47;;;;;;;5.75;3.38;;;;;;;11.06;100.00;95814.28;1031006;28;20027;-75
2023/06/06 00:30:17;;;;;;;4.90;2.92;;;;;;;11.07;100.00;95816.69;1026595;28;20042;-74
2023/06/06 00:30:48;;;;;;;4.20;3.03;;;;;;;11.11;100.00;95821.41;1026992;28;20061;-75
2023/06/06 00:31:18;;;;;;;7.15;3.20;;;;;;;11.09;100.00;95825.06;1026066;28;20034;-76
2023/06/06 00:31:49;;;;;;;6.45;3.30;;;;;;;11.07;100.00;95821.94;1023037;28;20620;-76
2023/06/06 00:32:19;;;;;;;4.22;3.10;;;;;;;11.01;100.00;95812.47;1030825;28;20023;-76
2023/06/06 00:32:49;;;;;;;5.03;3.60;;;;;;;11.05;100.00;95821.38;1026709;28;20030;-75
2023/06/06 00:33:20;;;;;;;3.80;3.17;;;;;;;11.04;100.00;95827.69;1026660;28;20744;-77
2023/06/06 00:33:50;;;;;;;5.65;3.03;;;;;;;11.02;100.00;95824.53;1026910;28;20023;-75
2023/06/06 00:34:21;;;;;;;3.70;3.10;;;;;;;11.03;100.00;95823.50;1026765;28;20042;-74
2023/06/06 00:34:51;;;;;;;4.47;2.90;;;;;;;11.00;100.00;95821.41;1025485;28;20413;-74
2023/06/06 00:35:22;;;;;;;4.35;3.00;;;;;;;10.99;100.00;95819.81;1022758;28;20031;-75
2023/06/06 00:35:52;;;;;;;3.85;3.22;;;;;;;10.98;100.00;95817.47;1022698;29;20043;-74
2023/06/06 00:36:23;;;;;;;4.00;2.72;;;;;;;10.93;100.00;95810.38;1019152;29;20024;-74
2023/06/06 00:36:53;;;;;;;3.72;2.97;;;;;;;10.91;100.00;95807.22;1030323;28;20026;-76
2023/06/06 00:37:24;;;;;;;5.43;3.75;;;;;;;10.96;100.00;95814.28;1030932;28;20035;-75
2023/06/06 00:37:55;;;;;;;5.13;3.67;;;;;;;10.92;100.00;95815.88;1018894;29;20505;-75
2023/06/06 00:38:25;;;;;;;4.63;3.80;;;;;;;10.96;100.00;95817.72;1026582;28;20031;-76
2023/06/06 00:38:55;;;;;;;4.28;3.40;;;;;;;10.93;100.00;95820.88;1018960;29;20039;-74
2023/06/06 00:39:26;;;;;;;3.53;3.08;;;;;;;10.89;100.00;95813.78;1019181;28;20126;-75
2023/06/06 00:39:59;;;;;;;4.82;3.80;;;;;;;10.91;100.00;95822.19;1022781;28;20200;-75
2023/06/06 00:40:33;;;;;;;4.80;3.38;;;;;;;10.87;100.00;95821.91;1027204;28;20058;-74
2023/06/06 00:41:03;;;;;;;3.88;3.30;;;;;;;10.85;100.00;95819.53;1031074;28;20964;-77
2023/06/06 00:41:33;;;;;;;6.28;3.95;;;;;;;10.79;100.00;95814.56;1035202;28;20292;-75
2023/06/06 00:42:04;;;;;;;3.47;3.17;;;;;;;10.84;100.00;95819.81;1026627;28;20089;-74
2023/06/06 00:42:35;;;;;;;6.25;3.60;;;;;;;10.84;100.00;95817.19;1018838;29;20110;-75
2023/06/06 00:43:05;;;;;;;10.55;3.60;;;;;;;10.84;100.00;95822.44;1018813;29;20689;-75
2023/06/06 00:43:36;;;;;;;19.30;4.25;;;;;;;10.82;100.00;95819.28;1018783;29;20076;-76
2023/06/06 00:44:07;;;;;;;9.43;4.35;;;;;;;10.81;100.00;95818.50;1023317;28;20418;-74
2023/06/06 00:44:37;;;;;;;6.55;3.42;;;;;;;10.80;100.00;95821.41;1030849;28;20027;-76
2023/06/06 00:45:08;;;;;;;5.00;3.13;;;;;;;10.71;100.00;95807.22;1034650;28;20033;-74
2023/06/06 00:45:38;;;;;;;4.28;3.63;;;;;;;10.77;100.00;95821.91;1030811;28;20049;-75
2023/06/06 00:46:10;;;;;;;3.70;3.17;;;;;;;10.77;100.00;95821.91;1022772;29;20015;-74
2023/06/06 00:46:41;;;;;;;8.05;4.07;;;;;;;10.71;100.00;95808.00;1026675;28;20134;-75
2023/06/06 00:47:11;;;;;;;5.95;3.22;;;;;;;10.72;100.00;95819.28;1030728;28;20281;-76
2023/06/06 00:47:42;;;;;;;4.85;3.15;;;;;;;10.73;100.00;95820.84;1026832;28;20179;-74
2023/06/06 00:48:12;;;;;;;3.45;3.10;;;;;;;10.73;100.00;95818.22;1030809;28;20026;-76
2023/06/06 00:48:43;;;;;;;3.22;2.90;;;;;;;10.70;100.00;95821.38;1026641;28;20054;-75
2023/06/06 00:49:14;;;;;;;4.35;3.40;;;;;;;10.72;100.00;95814.81;1018728;28;20027;-75
2023/06/06 00:49:46;;;;;;;4.78;3.38;;;;;;;10.75;100.00;95824.78;1026828;28;20035;-74
2023/06/06 00:50:16;;;;;;;5.78;3.92;;;;;;;10.74;100.00;95814.56;1030679;28;20322;-75
2023/06/06 00:50:47;;;;;;;4.32;3.50;;;;;;;10.79;100.00;95825.06;1030858;28;20297;-74
2023/06/06 00:51:18;;;;;;;7.03;3.40;;;;;;;10.75;100.00;95814.28;1025211;28;20113;-75
2023/06/06 00:51:48;;;;;;;3.55;2.95;;;;;;;10.78;100.00;95819.03;1024194;28;20278;-75
2023/06/06 00:52:19;;;;;;;6.95;3.63;;;;;;;10.83;100.00;95826.91;1022892;29;20031;-75
2023/06/06 00:52:50;;;;;;;4.47;3.53;;;;;;;10.80;100.00;95818.78;1030829;28;20166;-74
2023/06/06 00:53:20;;;;;;;9.35;3.60;;;;;;;10.77;100.00;95816.66;1022727;29;20407;-75
2023/06/06 00:53:52;;;;;;;4.40;3.35;;;;;;;10.82;100.00;95814.03;1030755;28;20022;-75
2023/06/06 00:54:22;;;;;;;4.40;3.17;;;;;;;10.88;100.00;95828.75;1026818;28;20023;-76
2023/06/06 00:54:53;;;;;;;6.10;3.38;;;;;;;10.85;100.00;95818.75;1026695;28;20340;-75
2023/06/06 00:55:23;;;;;;;4.35;3.42;;;;;;;10.87;100.00;95821.13;1022621;28;20035;-75
2023/06/06 00:55:54;;;;;;;7.53;3.25;;;;;;;10.87;100.00;95821.91;1026632;28;20030;-75
2023/06/06 00:56:28;;;;;;;4.57;3.20;;;;;;;10.92;100.00;95821.13;1030833;28;20022;-76
2023/06/06 00:57:00;;;;;;;6.30;3.10;;;;;;;10.92;100.00;95829.78;1026581;28;20241;-75
2023/06/06 00:57:30;;;;;;;4.82;3.17;;;;;;;10.81;100.00;95807.22;1018588;29;20263;-77
2023/06/06 00:58:01;;;;;;;3.50;2.88;;;;;;;10.93;100.00;95820.88;1026758;28;20286;-75
2023/06/06 00:58:31;;;;;;;3.58;3.03;;;;;;;10.97;100.00;95826.41;1022477;28;20027;-77
2023/06/06 00:59:03;;;;;;;3.60;2.97;;;;;;;10.96;100.00;95825.56;1014897;29;20048;-75
2023/06/06 00:59:33;;;;;;;3.90;3.17;;;;;;;10.98;100.00;95828.75;1018726;29;20608;-76
2023/06/06 01:00:06;;;;;;;4.50;3.38;;;;;;;10.90;100.00;95816.16;1018817;29;20272;-77
2023/06/06 01:00:37;;;;;;;4.63;3.10;;;;;;;10.99;100.00;95819.81;1029776;28;20057;-75
2023/06/06 01:01:07;;;;;;;4.78;3.53;;;;;;;10.90;100.00;95821.41;1026117;28;20699;-75
2023/06/06 01:01:39;;;;;;;3.72;3.40;;;;;;;10.96;100.00;95825.56;1026455;28;20022;-74
2023/06/06 01:02:17;;;;;;;4.00;3.30;;;;;;;10.94;100.00;95822.44;1026601;28;20034;-76
2023/06/06 01:02:48;;;;;;;4.20;3.40;;;;;;;10.99;100.00;95827.69;1029374;28;20885;-76
2023/06/06 01:03:19;;;;;;;4.90;3.13;;;;;;;10.98;100.00;95823.50;1031957;28;20254;-74
2023/06/06 01:03:50;;;;;;;4.22;3.45;;;;;;;11.03;100.00;95835.81;1030449;28;20036;-77
2023/06/06 01:04:20;;;;;;;7.15;3.53;;;;;;;11.03;100.00;95825.31;1026611;28;20747;-75
2023/06/06 01:04:51;;;;;;;5.80;3.17;;;;;;;10.94;100.00;95822.44;1018788;29;20075;-75
2023/06/06 01:05:21;;;;;;;4.32;3.63;;;;;;;10.87;100.00;95811.44;1022884;28;20054;-74
2023/06/06 01:05:53;;;;;;;4.63;3.60;;;;;;;11.00;100.00;95831.09;1026718;28;20031;-75
2023/06/06 01:06:23;;;;;;;4.30;3.47;;;;;;;10.98;100.00;95833.22;1027066;28;20623;-75
2023/06/06 01:06:55;;;;;;;4.00;3.17;;;;;;;10.99;100.00;95838.19;1030779;28;20285;-76
2023/06/06 01:07:29;;;;;;;5.10;3.35;;;;;;;10.93;100.00;95818.25;1033956;28;20022;-75
2023/06/06 01:07:59;;;;;;;5.50;3.47;;;;;;;10.99;100.00;95840.81;1030791;28;20277;-75
2023/06/06 01:08:30;;;;;;;5.25;3.47;;;;;;;10.98;100.00;95833.22;1030136;28;20265;-74
2023/06/06 01:09:04;;;;;;;7.40;4.38;;;;;;;10.95;100.00;95829.25;1033874;28;20034;-76
2023/06/06 01:09:35;;;;;;;6.43;3.60;;;;;;;10.94;100.00;95825.06;1030674;28;20114;-75
2023/06/06 01:10:08;;;;;;;5.60;3.58;;;;;;;10.96;100.00;95836.09;1030780;28;20277;-75
2023/06/06 01:10:39;;;;;;;5.70;3.83;;;;;;;10.83;100.00;95810.34;1024252;28;20274;-75
2023/06/06 01:11:16;;;;;;;4.55;3.20;;;;;;;10.95;100.00;95837.16;1029866;28;20270;-74
2023/06/06 01:11:57;;;;;;;4.85;3.35;;;;;;;10.94;100.00;95835.56;1022838;28;20043;-75
2023/06/06 01:13:01;;;;;;;6.80;3.60;;;;;;;10.96;100.00;95836.09;1022467;28;20800;-75
2023/06/06 01:13:38;;;;;;;5.63;3.35;;;;;;;10.95;100.00;95845.00;1034377;28;20265;-75
2023/06/06 01:14:18;;;;;;;5.53;3.50;;;;;;;10.94;100.00;95843.44;1031815;28;20265;-75
2023/06/06 01:15:22;;;;;;;4.35;3.78;;;;;;;10.94;100.00;95840.81;1030610;28;20308;-75
2023/06/06 01:16:05;;;;;;;5.30;3.83;;;;;;;10.92;100.00;95840.28;1017825;28;20040;-75
2023/06/06 01:16:35;;;;;;;10.98;3.58;;;;;;;10.91;100.00;95843.97;1022218;29;20748;-75
2023/06/06 01:17:07;;;;;;;6.00;3.65;;;;;;;10.89;100.00;95837.41;1017200;29;20290;-75
2023/06/06 01:17:39;;;;;;;4.25;3.67;;;;;;;10.91;100.00;95843.97;1026232;28;20027;-76
2023/06/06 01:18:11;;;;;;;4.22;3.15;;;;;;;10.90;100.00;95845.03;1026213;28;20266;-75
2023/06/06 01:18:42;;;;;;;6.15;3.83;;;;;;;10.89;100.00;95840.03;1022207;29;20281;-74
2023/06/06 01:19:16;;;;;;;4.57;3.53;;;;;;;10.88;100.00;95849.75;1018610;29;20622;-75
2023/06/06 01:19:49;;;;;;;4.30;3.22;;;;;;;10.88;100.00;95836.63;1034594;28;20025;-75
2023/06/06 01:20:23;;;;;;;4.63;3.78;;;;;;;10.88;100.00;95839.25;1030396;28;20265;-76
2023/06/06 01:20:54;;;;;;;4.78;3.53;;;;;;;10.86;100.00;95838.69;1026541;28;20336;-75
2023/06/06 01:21:32;;;;;;;5.47;3.97;;;;;;;10.85;100.00;95829.25;1027167;28;20400;-75
2023/06/06 01:22:03;;;;;;;5.05;3.83;;;;;;;10.87;100.00;95842.13;1028647;28;20019;-77
2023/06/06 01:22:35;;;;;;;5.13;3.78;;;;;;;10.85;100.00;95839.75;1030430;28;20289;-75
2023/06/06 01:23:06;;;;;;;3.70;3.30;;;;;;;10.89;100.00;95840.81;1037195;28;20088;-77
2023/06/06 01:23:36;;;;;;;5.70;3.60;;;;;;;10.85;100.00;95840.53;1030560;28;20349;-75
2023/06/06 01:24:07;;;;;;;5.78;3.80;;;;;;;10.87;100.00;95842.94;1030654;28;20018;-75
2023/06/06 01:24:38;;;;;;;4.07;3.47;;;;;;;10.86;100.00;95836.06;1015270;29;20035;-75
2023/06/06 01:25:08;;;;;;;4.68;3.90;;;;;;;10.79;100.00;95833.72;1026740;28;20030;-76
2023/06/06 01:25:41;;;;;;;5.07;3.90;;;;;;;10.85;100.00;95837.13;1038673;28;20025;-76
2023/06/06 01:26:12;;;;;;;5.22;3.67;;;;;;;10.85;100.00;95839.75;1034560;28;20040;-75
2023/06/06 01:26:42;;;;;;;3.60;3.30;;;;;;;10.83;100.00;95837.41;1034580;28;20644;-77
2023/06/06 01:27:13;;;;;;;5.13;3.80;;;;;;;10.84;100.00;95838.97;1030697;28;20703;-75
2023/06/06 01:27:45;;;;;;;5.60;3.95;;;;;;;10.84;100.00;95838.97;1030665;28;20141;-74
2023/06/06 01:28:16;;;;;;;4.85;3.83;;;;;;;10.84;100.00;95840.81;1030444;28;20107;-76
2023/06/06 01:28:46;;;;;;;5.32;3.90;;;;;;;10.82;100.00;95838.44;1026917;28;20306;-75
2023/06/06 01:29:17;;;;;;;4.43;3.20;;;;;;;10.80;100.00;95834.53;1026633;28;20802;-75
2023/06/06 01:29:48;;;;;;;8.38;3.58;;;;;;;10.73;100.00;95826.91;1023906;28;20425;-75
2023/06/06 01:30:21;;;;;;;6.68;4.00;;;;;;;10.75;100.00;95829.25;1022671;29;20032;-76
2023/06/06 01:30:51;;;;;;;4.25;3.70;;;;;;;10.78;100.00;95834.78;1023042;28;20279;-75
2023/06/06 01:31:22;;;;;;;5.68;3.58;;;;;;;10.72;100.00;95830.56;1030239;28;20688;-75
2023/06/06 01:32:17;;;;;;;5.30;4.18;;;;;;;10.75;100.00;95834.50;1034576;28;20380;-75
2023/06/06 01:33:06;;;;;;;5.10;3.78;;;;;;;10.74;100.00;95838.19;1026173;28;20030;-75
2023/06/06 01:33:40;;;;;;;10.13;4.10;;;;;;;10.66;100.00;95823.72;1027326;28;20247;-76
2023/06/06 01:34:19;;;;;;;6.00;4.05;;;;;;;10.64;100.00;95830.28;1030689;28;20786;-77
2023/06/06 01:35:33;;;;;;;6.13;3.80;;;;;;;10.66;100.00;95836.84;1022643;28;20322;-75
2023/06/06 01:36:23;;;;;;;7.03;4.35;;;;;;;10.60;100.00;95843.16;1029407;28;20271;-75
2023/06/06 01:37:14;;;;;;;5.57;3.88;;;;;;;10.57;100.00;95839.19;1034242;28;20370;-75
2023/06/06 01:38:20;;;;;;;5.93;4.15;;;;;;;10.52;100.00;95849.66;1030619;28;20265;-76
2023/06/06 01:38:56;;;;;;;5.20;3.75;;;;;;;10.46;100.00;95840.25;1029491;28;20278;-76
2023/06/06 01:39:27;;;;;;;8.48;3.85;;;;;;;10.46;100.00;95848.09;1023885;28;20297;-75
2023/06/06 01:39:57;;;;;;;6.50;3.80;;;;;;;10.38;100.00;95831.00;1026461;28;20278;-76
2023/06/06 01:40:29;;;;;;;6.53;3.55;;;;;;;10.43;100.00;95846.00;1026603;28;20417;-76
2023/06/06 01:41:00;;;;;;;5.55;3.90;;;;;;;10.38;100.00;95841.50;1022495;28;20401;-74
2023/06/06 01:41:31;;;;;;;5.03;3.80;;;;;;;10.37;100.00;95844.41;1030451;28;20261;-75
2023/06/06 01:42:01;;;;;;;4.72;4.03;;;;;;;10.32;100.00;95831.25;1026921;28;20770;-77
2023/06/06 01:42:36;;;;;;;5.75;4.20;;;;;;;10.34;100.00;95844.91;1026500;28;20469;-76
2023/06/06 01:43:06;;;;;;;6.50;3.78;;;;;;;10.22;100.00;95818.09;1022746;29;20453;-75
2023/06/06 01:43:37;;;;;;;8.50;4.03;;;;;;;10.35;100.00;95851.72;1029499;28;20266;-75
2023/06/06 01:44:08;;;;;;;4.47;3.55;;;;;;;10.34;100.00;95847.53;1026660;28;20019;-75
2023/06/06 01:44:39;;;;;;;10.85;4.10;;;;;;;10.31;100.00;95837.56;1026756;28;20046;-76
2023/06/06 01:45:09;;;;;;;7.95;3.63;;;;;;;10.33;100.00;95843.34;1034567;28;20264;-77
2023/06/06 01:45:40;;;;;;;5.85;3.67;;;;;;;10.33;100.00;95849.38;1026603;28;20025;-75
2023/06/06 01:46:10;;;;;;;5.68;4.55;;;;;;;10.30;100.00;95851.72;1022601;29;20026;-74
2023/06/06 01:46:41;;;;;;;5.20;4.32;;;;;;;10.29;100.00;95844.88;1022554;28;20059;-75
2023/06/06 01:47:11;;;;;;;5.30;4.25;;;;;;;10.26;100.00;95834.91;1022820;29;20070;-78
2023/06/06 01:47:42;;;;;;;4.75;4.25;;;;;;;10.33;100.00;95851.22;1026582;28;20473;-75
2023/06/06 01:48:12;;;;;;;8.35;4.18;;;;;;;10.31;100.00;95838.34;1026731;28;20027;-73
2023/06/06 01:48:43;;;;;;;4.97;3.95;;;;;;;10.34;100.00;95844.91;1029722;28;20037;-76
2023/06/06 01:49:15;;;;;;;5.15;3.72;;;;;;;10.33;100.00;95835.47;1026568;28;20042;-75
2023/06/06 01:49:46;;;;;;;5.05;3.92;;;;;;;10.33;100.00;95841.50;1026436;28;20035;-75
2023/06/06 01:50:16;;;;;;;5.07;4.57;;;;;;;10.33;100.00;95845.97;1030787;28;20269;-75
2023/06/06 01:50:46;;;;;;;5.07;4.00;;;;;;;10.33;100.00;95846.75;1026477;28;20523;-74
2023/06/06 01:51:17;;;;;;;4.63;4.05;;;;;;;10.31;100.00;95846.22;1025062;28;20042;-75
2023/06/06 01:51:47;;;;;;;4.72;4.13;;;;;;;10.33;100.00;95848.59;1025763;28;20023;-76
2023/06/06 01:52:18;;;;;;;6.50;4.32;;;;;;;10.28;100.00;95840.69;1026600;28;20086;-76
2023/06/06 01:52:52;;;;;;;8.40;4.07;;;;;;;10.32;100.00;95845.16;1022636;28;20027;-74
2023/06/06 01:53:22;;;;;;;6.10;4.43;;;;;;;10.31;100.00;95850.66;1023456;28;20059;-74
2023/06/06 01:53:57;;;;;;;4.93;4.13;;;;;;;10.29;100.00;95847.50;1029539;28;20273;-74
2023/06/06 01:54:28;;;;;;;6.53;4.53;;;;;;;10.29;100.00;95847.50;1026365;28;20042;-75
2023/06/06 01:54:58;;;;;;;4.95;3.90;;;;;;;10.27;100.00;95844.38;1026490;28;20266;-75
2023/06/06 01:55:29;;;;;;;8.82;3.97;;;;;;;10.24;100.00;95845.63;1024688;28;20273;-75
2023/06/06 01:56:00;;;;;;;6.55;3.85;;;;;;;10.23;100.00;95851.13;1022894;28;20031;-76
2023/06/06 01:56:33;;;;;;;5.07;3.97;;;;;;;10.21;100.00;95845.38;1030589;28;20088;-75
2023/06/06 01:57:05;;;;;;;5.43;4.28;;;;;;;10.20;100.00;95843.81;1030944;28;20088;-77
2023/06/06 01:57:36;;;;;;;5.15;4.13;;;;;;;10.12;100.00;95837.97;1030482;28;20651;-76
2023/06/06 01:58:06;;;;;;;5.72;4.47;;;;;;;10.13;100.00;95850.06;1022642;29;20261;-75
2023/06/06 01:58:37;;;;;;;5.80;4.43;;;;;;;10.04;100.00;95830.63;1014758;29;20016;-75
2023/06/06 01:59:07;;;;;;;5.57;4.22;;;;;;;10.13;100.00;95844.81;1014915;29;20032;-75
2023/06/06 01:59:38;;;;;;;5.78;4.57;;;;;;;10.13;100.00;95839.56;1014886;29;20394;-77
2023/06/06 02:00:10;;;;;;;6.93;4.13;;;;;;;10.15;100.00;95849.78;1018821;29;20099;-76
2023/06/06 02:00:40;;;;;;;5.75;4.28;;;;;;;10.16;100.00;95848.78;1014734;29;20279;-75
2023/06/06 02:01:11;;;;;;;6.55;4.40;;;;;;;10.12;100.00;95843.22;1014357;29;20307;-74
2023/06/06 02:01:42;;;;;;;6.10;4.25;;;;;;;10.10;100.00;95840.09;1030326;28;20034;-75
2023/06/06 02:02:14;;;;;;;5.68;4.28;;;;;;;10.11;100.00;95844.28;1028665;28;20023;-75
2023/06/06 02:02:44;;;;;;;5.40;4.35;;;;;;;10.11;100.00;95844.28;1030419;28;20108;-75
2023/06/06 02:03:15;;;;;;;6.70;5.07;;;;;;;10.09;100.00;95843.75;1026694;28;20316;-75
2023/06/06 02:03:45;;;;;;;5.90;4.10;;;;;;;10.10;100.00;95850.56;1031116;28;20034;-75
2023/06/06 02:04:17;;;;;;;7.97;4.90;;;;;;;10.08;100.00;95844.00;1038770;28;20451;-76
2023/06/06 02:04:48;;;;;;;7.05;4.70;;;;;;;10.07;100.00;95845.06;1030389;28;20054;-75
2023/06/06 02:05:19;;;;;;;5.70;4.60;;;;;;;10.09;100.00;95849.00;1026504;28;20266;-75
2023/06/06 02:05:50;;;;;;;7.80;4.07;;;;;;;10.10;100.00;95845.34;1018439;29;20668;-76
2023/06/06 02:06:20;;;;;;;7.13;4.72;;;;;;;10.10;100.00;95844.53;1026384;28;20751;-74
2023/06/06 02:06:51;;;;;;;9.35;5.15;;;;;;;10.04;100.00;95843.72;1026534;28;20274;-74
2023/06/06 02:07:24;;;;;;;5.85;4.53;;;;;;;10.00;100.00;95842.66;1026565;28;20102;-74
2023/06/06 02:07:55;;;;;;;7.47;4.45;;;;;;;10.06;100.00;95849.50;1025650;28;20043;-75
2023/06/06 02:08:26;;;;;;;9.15;4.88;;;;;;;10.06;100.00;95848.69;1022958;28;20267;-76
2023/06/06 02:08:56;;;;;;;9.07;5.22;;;;;;;10.05;100.00;95850.53;1018344;29;20031;-76
2023/06/06 02:09:27;;;;;;;8.90;4.20;;;;;;;9.99;100.00;95838.44;1019064;28;20028;-75
2023/06/06 02:09:57;;;;;;;7.55;5.22;;;;;;;10.04;100.00;95848.19;1030420;28;20489;-77
2023/06/06 02:10:28;;;;;;;8.65;5.38;;;;;;;10.02;100.00;95852.88;1026539;28;20027;-76
2023/06/06 02:10:59;;;;;;;11.20;4.50;;;;;;;9.98;100.00;95842.13;1030261;28;20015;-77
2023/06/06 02:11:29;;;;;;;6.22;4.53;;;;;;;10.00;100.00;95852.38;1022110;28;20315;-76
2023/06/06 02:11:59;;;;;;;9.57;5.70;;;;;;;10.01;100.00;95852.09;1030352;28;20806;-75
2023/06/06 02:12:30;;;;;;;5.70;4.50;;;;;;;10.03;100.00;95857.88;1026062;28;20027;-77
2023/06/06 02:13:01;;;;;;;7.43;5.18;;;;;;;10.00;100.00;95850.53;1030473;28;20073;-74
2023/06/06 02:13:31;;;;;;;8.02;5.07;;;;;;;10.01;100.00;95852.09;1030178;28;20278;-75
2023/06/06 02:14:02;;;;;;;9.82;4.88;;;;;;;10.00;100.00;95852.38;1030203;28;20604;-75
2023/06/06 02:14:33;;;;;;;6.28;4.53;;;;;;;10.00;100.00;95850.53;1030350;28;20488;-75
2023/06/06 02:15:05;;;;;;;12.73;4.70;;;;;;;9.86;100.00;95836.31;1026450;28;20020;-74
2023/06/06 02:15:35;;;;;;;9.07;4.70;;;;;;;10.00;100.00;95847.91;1026525;28;20488;-76
2023/06/06 02:16:06;;;;;;;10.65;4.38;;;;;;;9.98;100.00;95852.59;1030352;28;20319;-75
2023/06/06 02:16:37;;;;;;;5.55;4.85;;;;;;;9.98;100.00;95857.06;1030207;28;20559;-75
2023/06/06 02:17:07;;;;;;;5.90;4.57;;;;;;;9.97;100.00;95851.03;1030623;28;20037;-75
2023/06/06 02:17:38;;;;;;;7.50;4.90;;;;;;;9.93;100.00;95842.13;1033977;28;20022;-75
2023/06/06 02:18:08;;;;;;;7.07;4.63;;;;;;;9.96;100.00;95851.28;1026174;28;20023;-76
2023/06/06 02:18:44;;;;;;;5.90;4.57;;;;;;;9.93;100.00;95849.19;1030131;28;20049;-74
2023/06/06 02:19:15;;;;;;;6.35;4.32;;;;;;;9.89;100.00;95849.69;1022381;29;20109;-76
2023/06/06 02:19:46;;;;;;;4.88;4.20;;;;;;;9.94;100.00;95856.78;1034120;28;20360;-75
2023/06/06 02:20:16;;;;;;;11.82;4.47;;;;;;;9.88;100.00;95844.69;1034379;28;20431;-75
2023/06/06 02:20:47;;;;;;;6.85;4.30;;;;;;;9.93;100.00;95849.97;1030280;28;20293;-75
2023/06/06 02:21:17;;;;;;;8.70;4.43;;;;;;;9.93;100.00;95854.44;1029581;28;20520;-75
2023/06/06 02:21:49;;;;;;;7.75;4.28;;;;;;;9.93;100.00;95854.44;1034215;28;20029;-75
2023/06/06 02:22:20;;;;;;;11.85;4.90;;;;;;;9.91;100.00;95852.06;1031298;28;20049;-75
2023/06/06 02:22:51;;;;;;;7.10;4.30;;;;;;;9.90;100.00;95850.50;1033663;28;20276;-75
2023/06/06 02:23:21;;;;;;;7.72;4.55;;;;;;;9.87;100.00;95848.38;1029977;28;20022;-75
2023/06/06 02:23:52;;;;;;;9.45;4.68;;;;;;;9.84;100.00;95847.03;1027028;28;20025;-75
2023/06/06 02:24:24;;;;;;;11.45;4.60;;;;;;;9.87;100.00;95856.22;1027261;28;20027;-76
2023/06/06 02:24:55;;;;;;;10.80;4.82;;;;;;;9.82;100.00;95843.09;1025595;28;20539;-76
2023/06/06 02:25:26;;;;;;;6.35;4.60;;;;;;;9.80;100.00;95842.56;1023605;28;20278;-75
2023/06/06 02:25:58;;;;;;;6.88;4.53;;;;;;;9.84;100.00;95851.50;1026869;28;20078;-74
2023/06/06 02:26:31;;;;;;;5.47;4.72;;;;;;;9.83;100.00;95855.16;1028841;28;20349;-74
2023/06/06 02:27:02;;;;;;;13.75;5.00;;;;;;;9.83;100.00;95855.16;1023183;29;20333;-75
2023/06/06 02:27:38;;;;;;;7.05;4.38;;;;;;;9.77;100.00;95840.47;1023969;28;20785;-74
2023/06/06 02:28:08;;;;;;;8.93;4.82;;;;;;;9.82;100.00;95856.19;1028789;28;20093;-77
2023/06/06 02:28:39;;;;;;;6.22;4.55;;;;;;;9.80;100.00;95855.69;1023120;28;20333;-75
2023/06/06 02:29:10;;;;;;;8.32;4.65;;;;;;;9.82;100.00;95854.34;1023014;28;20023;-74
2023/06/06 02:29:40;;;;;;;7.22;4.70;;;;;;;9.82;100.00;95856.19;1022319;28;20031;-74
2023/06/06 02:30:11;;;;;;;13.52;4.82;;;;;;;9.75;100.00;95842.53;1015444;29;20282;-75